Independence, Minnesota
Current Conditions -  °F | °C
As of 12:15 AM on Thursday 29 Jan 2015 (Local Time) from KCFE Reporting Station
Haze Haze  
Wind Chill: 25°   Ceiling: 500
Heat Index: 30°   Visibility: 3mi
Dew Point: 29°   Wind: 5mph
Humidity: 96%   Direction: 280°W
Pressure: 29.9"   Gusts: NA
Location:  45.1045°N, 93.6647°W
Report Text: KCFE 290615Z AUTO 28004KT 3SM BR OVC005 M01/M02 A2990 RMK AO2 T10101016
Loading
Personal Weather Stations






























Interactive Weather Map New forecast layout! Learn more

10-Day Weather Forecast

Advertisements
Track Severe Weather on mobile